createdAt,value
2022-09-20T00:00:20.914Z,7.75
2022-09-20T00:03:22.618Z,8.55
2022-09-20T00:06:28.081Z,8.95
2022-09-20T00:09:32.131Z,8.77
2022-09-20T00:12:34.136Z,7.72
2022-09-20T00:15:41.532Z,7.10
2022-09-20T00:18:43.794Z,6.13
2022-09-20T00:21:48.147Z,6.88
2022-09-20T00:24:52.066Z,5.40
2022-09-20T00:28:04.110Z,8.00
2022-09-20T00:31:06.695Z,6.72
2022-09-20T00:34:28.531Z,7.05
2022-09-20T00:37:41.893Z,6.65
2022-09-20T00:40:44.861Z,7.90
2022-09-20T00:43:47.496Z,7.32
2022-09-20T00:46:49.226Z,9.40
2022-09-20T00:49:53.517Z,8.68
2022-09-20T00:53:00.810Z,5.25
2022-09-20T00:56:09.848Z,9.77
2022-09-20T00:59:32.207Z,7.63
2022-09-20T01:02:38.139Z,5.90
2022-09-20T01:05:40.817Z,6.97
2022-09-20T01:08:47.696Z,8.18
2022-09-20T01:11:52.054Z,7.75
2022-09-20T01:14:55.317Z,8.52
2022-09-20T01:17:59.454Z,8.65
2022-09-20T01:21:02.157Z,10.23
2022-09-20T01:24:27.174Z,7.55
2022-09-20T01:27:36.498Z,6.50
2022-09-20T01:34:14.800Z,8.43
2022-09-20T01:37:26.563Z,10.88
2022-09-20T01:40:41.195Z,9.75
2022-09-20T01:43:52.082Z,8.35
2022-09-20T01:47:06.985Z,10.73
2022-09-20T01:50:25.119Z,8.95
2022-09-20T01:54:08.639Z,11.45
2022-09-20T01:57:35.558Z,10.45
2022-09-20T02:01:11.497Z,9.07
2022-09-20T02:04:34.337Z,6.57
2022-09-20T02:07:35.958Z,9.45
2022-09-20T02:10:49.845Z,10.73
2022-09-20T02:13:57.941Z,7.40
2022-09-20T02:17:12.589Z,9.55
2022-09-20T02:20:32.705Z,7.78
2022-09-20T02:23:39.157Z,12.80
2022-09-20T02:27:07.829Z,10.95
2022-09-20T02:30:21.052Z,6.75
2022-09-20T02:34:00.261Z,11.18
2022-09-20T02:37:35.024Z,7.57
2022-09-20T02:41:04.099Z,7.25
2022-09-20T02:44:24.983Z,9.68
2022-09-20T02:47:40.050Z,7.93
2022-09-20T02:51:10.145Z,9.88
2022-09-20T02:54:27.039Z,9.63
2022-09-20T02:57:59.884Z,10.45
2022-09-20T03:01:10.730Z,7.60
2022-09-20T03:04:20.733Z,9.60
2022-09-20T03:07:30.965Z,10.23
2022-09-20T03:10:43.645Z,9.90
2022-09-20T03:14:23.158Z,9.07
2022-09-20T03:17:43.216Z,12.15
2022-09-20T03:21:17.315Z,6.75
2022-09-20T03:24:51.245Z,6.28
2022-09-20T03:27:58.721Z,8.73
2022-09-20T03:31:12.567Z,10.57
2022-09-20T03:34:49.905Z,10.05
2022-09-20T03:38:03.847Z,8.18
2022-09-20T03:41:42.466Z,11.35
2022-09-20T03:44:59.275Z,8.40
2022-09-20T03:48:23.977Z,6.80
2022-09-20T03:51:47.538Z,11.50
2022-09-20T03:55:06.204Z,9.25
2022-09-20T03:58:16.807Z,12.32
2022-09-20T04:01:38.787Z,10.35
2022-09-20T04:05:00.541Z,8.88
2022-09-20T04:08:08.128Z,11.50
2022-09-20T04:11:31.291Z,8.77
2022-09-20T04:15:07.196Z,9.30
2022-09-20T04:18:22.569Z,12.27
2022-09-20T04:21:55.016Z,9.73
2022-09-20T04:25:13.366Z,9.73
2022-09-20T04:28:21.418Z,10.40
2022-09-20T04:31:26.012Z,15.88
2022-09-20T04:34:57.432Z,12.70
2022-09-20T04:38:06.123Z,10.25
2022-09-20T04:41:51.295Z,9.70
2022-09-20T04:45:08.297Z,10.07
2022-09-20T04:48:39.444Z,9.30
2022-09-20T04:52:07.112Z,14.43
2022-09-20T04:55:14.006Z,13.13
2022-09-20T04:58:47.091Z,10.43
2022-09-20T05:02:16.642Z,10.07
2022-09-20T05:05:31.502Z,9.30
2022-09-20T05:08:59.072Z,12.02
2022-09-20T05:12:25.386Z,11.38
2022-09-20T05:15:38.482Z,8.50
2022-09-20T05:18:59.463Z,8.00
2022-09-20T05:22:13.710Z,9.35
2022-09-20T05:25:52.138Z,7.82
2022-09-20T05:29:02.368Z,8.00
2022-09-20T05:32:33.351Z,8.40
2022-09-20T05:35:48.044Z,12.90
2022-09-20T05:39:03.570Z,9.85
2022-09-20T05:42:29.266Z,8.88
2022-09-20T05:45:49.075Z,7.20
2022-09-20T05:48:56.754Z,7.18
2022-09-20T05:52:26.542Z,8.88
2022-09-20T05:55:34.126Z,7.10
2022-09-20T05:58:54.162Z,8.52
2022-09-20T06:02:11.092Z,10.23
2022-09-20T06:05:39.821Z,7.72
2022-09-20T06:09:12.191Z,7.63
2022-09-20T06:12:20.006Z,6.85
2022-09-20T06:15:44.910Z,6.40
2022-09-20T06:18:57.450Z,8.07
2022-09-20T06:22:08.650Z,11.30
2022-09-20T06:25:20.342Z,8.45
2022-09-20T06:28:38.937Z,7.30
2022-09-20T06:31:40.612Z,13.68
2022-09-20T06:34:42.297Z,9.18
2022-09-20T06:38:12.252Z,10.80
2022-09-20T06:41:32.739Z,8.77
2022-09-20T06:44:43.010Z,13.98
2022-09-20T06:47:46.838Z,8.30
2022-09-20T06:50:48.482Z,9.48
2022-09-20T06:54:17.578Z,8.32
2022-09-20T06:57:24.441Z,15.05
2022-09-20T07:00:26.244Z,8.27
2022-09-20T07:03:27.906Z,8.27
2022-09-20T07:06:29.719Z,9.48
2022-09-20T07:09:31.674Z,10.35
2022-09-20T07:12:35.070Z,7.72
2022-09-20T07:15:37.062Z,11.32
2022-09-20T07:18:38.806Z,8.70
2022-09-20T07:21:55.764Z,7.13
2022-09-20T07:24:58.974Z,8.50
2022-09-20T07:28:05.370Z,10.43
2022-09-20T07:31:07.052Z,10.82
2022-09-20T07:34:12.264Z,9.30
2022-09-20T07:37:14.047Z,8.77
2022-09-20T07:40:16.519Z,7.78
2022-09-20T07:43:19.362Z,11.13
2022-09-20T07:46:22.316Z,11.57
2022-09-20T07:49:26.065Z,10.60
2022-09-20T07:52:36.660Z,12.43
2022-09-20T07:55:38.260Z,11.38
2022-09-20T07:58:40.307Z,10.18
2022-09-20T08:02:14.534Z,12.65
2022-09-20T08:05:16.263Z,11.82
2022-09-20T08:08:19.192Z,11.43
2022-09-20T08:11:27.853Z,10.05
2022-09-20T08:14:30.396Z,7.40
2022-09-20T08:22:34.884Z,9.38
2022-09-20T08:48:52.255Z,5.95
2022-09-20T08:52:03.129Z,8.43
2022-09-20T08:55:16.899Z,5.88
2022-09-20T08:58:19.199Z,6.57
2022-09-20T09:01:24.461Z,8.73
2022-09-20T09:04:35.610Z,6.88
2022-09-20T09:07:37.199Z,7.25
2022-09-20T09:10:43.107Z,8.82
2022-09-20T09:14:30.873Z,5.55
2022-09-20T09:17:32.528Z,6.43
2022-09-20T09:20:43.357Z,8.30
2022-09-20T09:24:03.340Z,7.22
2022-09-20T09:27:19.594Z,9.65
2022-09-20T09:30:43.401Z,6.73
2022-09-20T09:33:45.879Z,7.63
2022-09-20T09:36:47.525Z,8.43
2022-09-20T09:40:13.171Z,12.00
2022-09-20T09:43:23.345Z,8.90
2022-09-20T09:46:27.426Z,8.15
2022-09-20T09:49:34.075Z,6.90
2022-09-20T09:55:53.084Z,5.28
2022-09-20T09:59:07.926Z,6.25
2022-09-20T10:02:13.134Z,5.90
2022-09-20T10:05:28.414Z,8.10
2022-09-20T10:08:29.889Z,7.43
2022-09-20T10:11:49.644Z,5.07
2022-09-20T10:15:10.336Z,6.45
2022-09-20T10:18:42.821Z,6.55
2022-09-20T10:21:51.048Z,4.95
2022-09-20T10:25:03.284Z,5.10
2022-09-20T10:28:04.818Z,6.10
2022-09-20T10:31:25.968Z,5.22
2022-09-20T10:34:52.069Z,7.28
2022-09-20T10:38:13.351Z,5.30
2022-09-20T10:41:39.626Z,7.50
2022-09-20T10:45:00.962Z,5.07
2022-09-20T10:48:10.002Z,4.50
2022-09-20T10:51:44.467Z,4.78
2022-09-20T10:54:54.863Z,4.82
2022-09-20T10:58:00.217Z,5.40
2022-09-20T11:01:07.923Z,3.30
2022-09-20T11:04:18.604Z,5.22
2022-09-20T11:07:46.536Z,7.07
2022-09-20T11:11:17.038Z,6.30
2022-09-20T11:14:23.345Z,4.60
2022-09-20T11:17:31.863Z,3.00
2022-09-20T11:20:47.302Z,6.30
2022-09-20T11:24:00.536Z,7.35
2022-09-20T11:27:13.431Z,6.40
2022-09-20T11:30:20.832Z,4.03
2022-09-20T11:33:41.194Z,4.95
2022-09-20T11:36:57.657Z,3.95
2022-09-20T11:40:17.498Z,5.33
2022-09-20T11:43:19.877Z,4.85
2022-09-20T11:46:31.202Z,2.25
2022-09-20T11:49:54.186Z,2.85
2022-09-20T11:53:14.011Z,4.80
2022-09-20T11:56:22.499Z,3.20
2022-09-20T11:59:34.793Z,3.58
2022-09-20T12:02:52.541Z,2.88
2022-09-20T12:06:00.929Z,3.10
2022-09-20T12:09:30.340Z,3.22
2022-09-20T12:12:35.775Z,4.72
2022-09-20T12:15:39.778Z,4.78
2022-09-20T12:19:00.795Z,4.15
2022-09-20T12:22:05.190Z,5.00
2022-09-20T12:25:36.711Z,2.85
2022-09-20T12:28:41.116Z,4.80
2022-09-20T12:31:48.453Z,2.35
2022-09-20T12:34:50.063Z,5.95
2022-09-20T12:37:51.760Z,2.88
2022-09-20T12:41:08.409Z,2.10
2022-09-20T12:44:42.171Z,5.85
2022-09-20T12:47:53.610Z,3.60
2022-09-20T12:51:21.922Z,5.60
2022-09-20T12:54:23.726Z,1.88
2022-09-20T12:57:35.537Z,2.80
2022-09-20T13:00:45.154Z,3.78
2022-09-20T13:03:49.021Z,2.97
2022-09-20T13:06:51.101Z,3.10
2022-09-20T13:09:54.258Z,2.38
2022-09-20T13:13:04.494Z,2.40
2022-09-20T13:16:07.225Z,3.65
2022-09-20T13:19:29.221Z,3.22
2022-09-20T13:22:41.968Z,4.03
2022-09-20T13:25:43.828Z,2.50
2022-09-20T13:28:55.645Z,1.73
2022-09-20T13:32:15.584Z,3.28
2022-09-20T13:35:24.560Z,3.92
2022-09-20T13:38:30.161Z,3.60
2022-09-20T13:41:32.538Z,6.65
2022-09-20T13:44:35.092Z,8.15
2022-09-20T13:47:43.503Z,5.60
2022-09-20T13:50:48.046Z,3.35
2022-09-20T13:56:57.043Z,3.70
2022-09-20T13:59:58.806Z,3.78
2022-09-20T14:03:00.623Z,3.70
2022-09-20T14:06:09.953Z,5.18
2022-09-20T14:09:21.880Z,4.00
2022-09-20T14:12:25.250Z,6.55
2022-09-20T14:15:33.145Z,3.88
2022-09-20T14:18:37.257Z,4.53
2022-09-20T14:21:38.921Z,5.25
2022-09-20T14:24:40.513Z,5.40
2022-09-20T14:27:42.337Z,4.30
2022-09-20T14:30:46.607Z,3.55
2022-09-20T14:33:55.092Z,4.10
2022-09-20T14:37:09.590Z,3.88
2022-09-20T14:40:20.075Z,3.55
2022-09-20T14:43:26.297Z,6.20
2022-09-20T14:46:35.851Z,3.60
2022-09-20T14:49:42.946Z,4.85
2022-09-20T14:52:45.352Z,3.63
2022-09-20T14:56:08.212Z,5.05
2022-09-20T14:59:13.970Z,3.67
2022-09-20T15:02:16.194Z,4.27
2022-09-20T15:05:25.995Z,5.22
2022-09-20T15:08:27.989Z,5.45
2022-09-20T15:11:29.944Z,5.00
2022-09-20T15:14:37.008Z,6.45
2022-09-20T15:17:39.543Z,4.28
2022-09-20T15:20:41.079Z,1.92
2022-09-20T15:23:42.672Z,2.45
2022-09-20T15:26:45.674Z,1.80
2022-09-20T15:29:47.325Z,2.47
2022-09-20T15:32:49.029Z,1.00
2022-09-20T15:35:50.833Z,2.30
2022-09-20T15:38:53.784Z,2.50
2022-09-20T15:41:55.367Z,3.08
2022-09-20T15:44:56.906Z,3.35
2022-09-20T15:47:58.486Z,2.03
2022-09-20T15:51:06.741Z,3.35
2022-09-20T15:54:13.487Z,2.35
2022-09-20T16:00:18.390Z,2.65
2022-09-20T16:03:20.535Z,1.98
2022-09-20T16:06:23.787Z,1.63
2022-09-20T16:09:25.358Z,1.95
2022-09-20T16:12:27.032Z,2.03
2022-09-20T16:15:29.926Z,2.05
2022-09-20T16:18:50.105Z,4.32
2022-09-20T16:21:58.652Z,2.15
2022-09-20T16:25:01.362Z,2.78
2022-09-20T16:28:02.903Z,2.65
2022-09-20T16:31:04.598Z,5.47
2022-09-20T16:34:08.796Z,4.38
2022-09-20T16:37:15.774Z,1.83
2022-09-20T16:40:17.559Z,2.05
2022-09-20T16:43:23.950Z,2.08
2022-09-20T16:46:28.975Z,2.17
2022-09-20T16:49:34.930Z,1.98
2022-09-20T16:52:37.695Z,2.25
2022-09-20T16:55:44.690Z,3.78
2022-09-20T16:58:46.408Z,1.50
2022-09-20T17:01:49.380Z,4.35
2022-09-20T17:04:52.059Z,2.50
2022-09-20T17:07:55.328Z,2.13
2022-09-20T17:11:03.283Z,2.78
2022-09-20T17:14:05.992Z,3.28
2022-09-20T17:17:07.529Z,2.78
2022-09-20T17:20:09.244Z,2.40
2022-09-20T17:23:10.839Z,2.03
2022-09-20T17:26:14.869Z,2.65
2022-09-20T17:29:18.283Z,3.13
2022-09-20T17:32:20.427Z,3.03
2022-09-20T17:35:22.486Z,3.35
2022-09-20T17:38:24.012Z,3.63
2022-09-20T17:41:25.705Z,2.90
2022-09-20T17:44:27.628Z,1.60
2022-09-20T17:47:29.212Z,3.63
2022-09-20T17:50:31.964Z,3.25
2022-09-20T17:53:36.028Z,2.63
2022-09-20T17:56:37.553Z,2.83
2022-09-20T17:59:39.107Z,3.40
2022-09-20T18:06:23.466Z,5.35
2022-09-20T18:09:25.770Z,3.80
2022-09-20T18:12:27.391Z,4.45
2022-09-20T18:15:29.023Z,4.95
2022-09-20T18:18:35.130Z,3.78
2022-09-20T18:21:38.744Z,3.50
2022-09-20T18:24:40.359Z,2.83
2022-09-20T18:27:42.286Z,3.80
2022-09-20T18:30:46.190Z,3.33
2022-09-20T18:33:47.804Z,3.75
2022-09-20T18:36:55.156Z,3.65
2022-09-20T18:40:02.137Z,4.05
2022-09-20T18:43:07.685Z,6.25
2022-09-20T19:24:19.000Z,7.35
2022-09-20T19:27:23.615Z,7.18
2022-09-20T19:30:25.580Z,6.75
2022-09-20T19:33:36.105Z,6.55
2022-09-20T19:37:12.219Z,7.68
2022-09-20T19:40:35.614Z,6.63
2022-09-20T19:44:04.377Z,8.05
2022-09-20T19:47:18.830Z,7.88
2022-09-20T19:50:48.617Z,6.63
2022-09-20T19:53:50.852Z,6.05
2022-09-20T19:56:57.758Z,5.90
2022-09-20T19:59:59.775Z,7.30
2022-09-20T20:03:01.811Z,6.05
2022-09-20T20:06:17.661Z,5.40
2022-09-20T20:09:37.633Z,7.07
2022-09-20T20:13:33.074Z,5.32
2022-09-20T20:16:43.402Z,5.30
2022-09-20T20:20:02.178Z,4.40
2022-09-20T20:23:41.226Z,3.90
2022-09-20T20:26:45.990Z,5.85
2022-09-20T20:29:47.635Z,4.10
2022-09-20T20:33:10.015Z,4.43
2022-09-20T20:36:31.976Z,5.60
2022-09-20T20:43:02.232Z,6.32
2022-09-20T20:46:36.467Z,3.97
2022-09-20T20:49:52.050Z,3.10
2022-09-20T20:52:59.563Z,3.47
2022-09-20T20:59:11.107Z,3.88
2022-09-20T21:02:12.805Z,4.22
2022-09-20T21:05:15.279Z,4.78
2022-09-20T21:08:16.967Z,3.85
2022-09-20T21:11:23.414Z,3.10
2022-09-20T21:14:25.279Z,3.45
2022-09-20T21:17:26.998Z,4.50
2022-09-20T21:20:31.082Z,3.58
2022-09-20T21:23:34.034Z,2.78
2022-09-20T21:26:39.849Z,3.40
2022-09-20T21:29:41.572Z,3.00
2022-09-20T21:32:43.250Z,5.22
2022-09-20T21:35:44.918Z,2.35
2022-09-20T21:38:46.757Z,3.83
2022-09-20T21:41:48.920Z,3.08
2022-09-20T21:44:58.420Z,4.00
2022-09-20T21:48:05.465Z,3.30
2022-09-20T21:51:15.857Z,3.40
2022-09-20T21:55:20.089Z,3.75
2022-09-20T21:57:49.705Z,4.22
2022-09-20T22:01:14.724Z,3.92
2022-09-20T22:04:17.968Z,3.90
2022-09-20T22:08:14.120Z,3.03
2022-09-20T22:11:26.634Z,3.85
2022-09-20T22:14:28.509Z,3.45
2022-09-20T22:17:30.241Z,2.47
2022-09-20T22:20:32.819Z,4.15
2022-09-20T22:23:37.262Z,3.55
2022-09-20T22:26:46.654Z,4.50
2022-09-20T22:29:48.510Z,3.13
2022-09-20T22:32:50.209Z,3.75
2022-09-20T22:35:51.890Z,4.90
2022-09-20T22:38:54.310Z,2.70
2022-09-20T22:41:56.209Z,3.40
2022-09-20T22:44:59.552Z,4.47
2022-09-20T22:48:01.424Z,11.65
2022-09-20T22:51:15.077Z,3.03
2022-09-20T22:54:16.788Z,2.85
2022-09-20T22:57:18.512Z,5.18
2022-09-20T23:05:39.955Z,3.38
2022-09-20T23:08:42.132Z,5.05
2022-09-20T23:11:44.717Z,4.13
2022-09-20T23:14:46.414Z,2.05
2022-09-20T23:17:48.126Z,4.18
2022-09-20T23:25:40.154Z,4.82
2022-09-20T23:28:44.276Z,3.83
2022-09-20T23:31:47.759Z,3.97
2022-09-20T23:34:49.865Z,3.45
2022-09-20T23:37:51.453Z,3.50
2022-09-20T23:40:54.017Z,4.20
2022-09-20T23:44:07.371Z,3.60
2022-09-20T23:47:09.103Z,3.65
2022-09-20T23:50:10.747Z,3.83
2022-09-20T23:53:12.553Z,3.90
2022-09-20T23:56:17.304Z,4.15
2022-09-20T23:59:19.090Z,3.17
